sensor_id;sensor_type;location;lat;lon;timestamp;P1;durP1;ratioP1;P2;durP2;ratioP2
41927;SDS011;27616;51.420;6.788;2022-07-23T00:00:20;10.23;;;5.00;;
41927;SDS011;27616;51.420;6.788;2022-07-23T00:02:46;7.63;;;4.50;;
41927;SDS011;27616;51.420;6.788;2022-07-23T00:05:12;8.25;;;4.70;;
41927;SDS011;27616;51.420;6.788;2022-07-23T00:07:38;8.18;;;4.30;;
41927;SDS011;27616;51.420;6.788;2022-07-23T00:10:07;9.63;;;5.07;;
41927;SDS011;27616;51.420;6.788;2022-07-23T00:12:34;8.93;;;5.22;;
41927;SDS011;27616;51.420;6.788;2022-07-23T00:15:00;8.95;;;4.68;;
41927;SDS011;27616;51.420;6.788;2022-07-23T00:17:29;8.40;;;4.97;;
41927;SDS011;27616;51.420;6.788;2022-07-23T00:20:02;8.63;;;4.55;;
41927;SDS011;27616;51.420;6.788;2022-07-23T00:22:28;8.65;;;4.88;;
41927;SDS011;27616;51.420;6.788;2022-07-23T00:24:54;9.88;;;5.25;;
41927;SDS011;27616;51.420;6.788;2022-07-23T00:27:21;8.80;;;4.90;;
41927;SDS011;27616;51.420;6.788;2022-07-23T00:29:47;10.77;;;5.63;;
41927;SDS011;27616;51.420;6.788;2022-07-23T00:32:12;9.93;;;5.20;;
41927;SDS011;27616;51.420;6.788;2022-07-23T00:34:38;10.30;;;5.63;;
41927;SDS011;27616;51.420;6.788;2022-07-23T00:37:04;9.63;;;4.70;;
41927;SDS011;27616;51.420;6.788;2022-07-23T00:39:29;8.75;;;4.93;;
41927;SDS011;27616;51.420;6.788;2022-07-23T00:41:55;7.82;;;4.68;;
41927;SDS011;27616;51.420;6.788;2022-07-23T00:44:22;10.48;;;5.30;;
41927;SDS011;27616;51.420;6.788;2022-07-23T00:46:50;8.55;;;4.82;;
41927;SDS011;27616;51.420;6.788;2022-07-23T00:49:21;7.20;;;4.72;;
41927;SDS011;27616;51.420;6.788;2022-07-23T00:51:52;9.73;;;5.43;;
41927;SDS011;27616;51.420;6.788;2022-07-23T00:54:19;7.85;;;4.80;;
41927;SDS011;27616;51.420;6.788;2022-07-23T00:56:46;10.40;;;5.23;;
41927;SDS011;27616;51.420;6.788;2022-07-23T00:59:13;8.77;;;5.07;;
41927;SDS011;27616;51.420;6.788;2022-07-23T01:01:39;7.85;;;5.43;;
41927;SDS011;27616;51.420;6.788;2022-07-23T01:04:05;10.05;;;5.50;;
41927;SDS011;27616;51.420;6.788;2022-07-23T01:06:34;8.70;;;5.07;;
41927;SDS011;27616;51.420;6.788;2022-07-23T01:09:02;8.05;;;4.93;;
41927;SDS011;27616;51.420;6.788;2022-07-23T01:11:35;9.43;;;4.97;;
41927;SDS011;27616;51.420;6.788;2022-07-23T01:14:12;11.75;;;5.88;;
41927;SDS011;27616;51.420;6.788;2022-07-23T01:16:40;8.52;;;5.20;;
41927;SDS011;27616;51.420;6.788;2022-07-23T01:19:06;7.85;;;5.32;;
41927;SDS011;27616;51.420;6.788;2022-07-23T01:21:36;7.72;;;5.40;;
41927;SDS011;27616;51.420;6.788;2022-07-23T01:24:03;8.07;;;5.47;;
41927;SDS011;27616;51.420;6.788;2022-07-23T01:26:30;8.13;;;5.43;;
41927;SDS011;27616;51.420;6.788;2022-07-23T01:28:56;8.35;;;4.75;;
41927;SDS011;27616;51.420;6.788;2022-07-23T01:31:22;8.88;;;5.40;;
41927;SDS011;27616;51.420;6.788;2022-07-23T01:33:48;9.85;;;5.63;;
41927;SDS011;27616;51.420;6.788;2022-07-23T01:36:15;9.90;;;5.95;;
41927;SDS011;27616;51.420;6.788;2022-07-23T01:38:41;9.98;;;6.13;;
41927;SDS011;27616;51.420;6.788;2022-07-23T01:41:07;8.95;;;5.70;;
41927;SDS011;27616;51.420;6.788;2022-07-23T01:43:32;8.48;;;5.43;;
41927;SDS011;27616;51.420;6.788;2022-07-23T01:45:58;9.40;;;5.90;;
41927;SDS011;27616;51.420;6.788;2022-07-23T01:48:29;10.32;;;5.88;;
41927;SDS011;27616;51.420;6.788;2022-07-23T01:51:21;7.60;;;5.47;;
41927;SDS011;27616;51.420;6.788;2022-07-23T01:53:56;11.55;;;5.80;;
41927;SDS011;27616;51.420;6.788;2022-07-23T01:56:22;8.18;;;5.63;;
41927;SDS011;27616;51.420;6.788;2022-07-23T01:58:49;7.78;;;5.13;;
41927;SDS011;27616;51.420;6.788;2022-07-23T02:01:15;10.18;;;5.75;;
41927;SDS011;27616;51.420;6.788;2022-07-23T02:03:41;9.85;;;6.00;;
41927;SDS011;27616;51.420;6.788;2022-07-23T02:06:08;11.45;;;6.03;;
41927;SDS011;27616;51.420;6.788;2022-07-23T02:08:34;10.43;;;5.47;;
41927;SDS011;27616;51.420;6.788;2022-07-23T02:11:00;11.88;;;6.38;;
41927;SDS011;27616;51.420;6.788;2022-07-23T02:13:26;12.90;;;6.75;;
41927;SDS011;27616;51.420;6.788;2022-07-23T02:15:54;10.82;;;5.85;;
41927;SDS011;27616;51.420;6.788;2022-07-23T02:18:19;9.57;;;5.80;;
41927;SDS011;27616;51.420;6.788;2022-07-23T02:20:45;12.02;;;5.95;;
41927;SDS011;27616;51.420;6.788;2022-07-23T02:23:11;9.20;;;5.63;;
41927;SDS011;27616;51.420;6.788;2022-07-23T02:25:37;7.32;;;5.22;;
41927;SDS011;27616;51.420;6.788;2022-07-23T02:28:03;8.05;;;5.30;;
41927;SDS011;27616;51.420;6.788;2022-07-23T02:30:29;8.30;;;5.93;;
41927;SDS011;27616;51.420;6.788;2022-07-23T02:32:55;13.93;;;7.43;;
41927;SDS011;27616;51.420;6.788;2022-07-23T02:35:22;9.07;;;5.88;;
41927;SDS011;27616;51.420;6.788;2022-07-23T02:37:48;11.25;;;5.80;;
41927;SDS011;27616;51.420;6.788;2022-07-23T02:40:14;11.75;;;6.03;;
41927;SDS011;27616;51.420;6.788;2022-07-23T02:42:42;11.13;;;5.40;;
41927;SDS011;27616;51.420;6.788;2022-07-23T02:45:08;9.82;;;6.68;;
41927;SDS011;27616;51.420;6.788;2022-07-23T02:47:34;8.93;;;5.28;;
41927;SDS011;27616;51.420;6.788;2022-07-23T02:50:00;12.70;;;6.90;;
41927;SDS011;27616;51.420;6.788;2022-07-23T02:52:28;11.98;;;6.38;;
41927;SDS011;27616;51.420;6.788;2022-07-23T02:54:54;10.27;;;5.80;;
41927;SDS011;27616;51.420;6.788;2022-07-23T02:57:20;10.30;;;6.30;;
41927;SDS011;27616;51.420;6.788;2022-07-23T02:59:45;11.35;;;6.28;;
41927;SDS011;27616;51.420;6.788;2022-07-23T03:02:11;10.27;;;6.15;;
41927;SDS011;27616;51.420;6.788;2022-07-23T03:04:37;9.98;;;6.38;;
41927;SDS011;27616;51.420;6.788;2022-07-23T03:07:03;13.10;;;6.57;;
41927;SDS011;27616;51.420;6.788;2022-07-23T03:09:29;10.38;;;5.90;;
41927;SDS011;27616;51.420;6.788;2022-07-23T03:11:54;8.98;;;5.72;;
41927;SDS011;27616;51.420;6.788;2022-07-23T03:14:20;11.50;;;6.45;;
41927;SDS011;27616;51.420;6.788;2022-07-23T03:16:46;11.75;;;6.38;;
41927;SDS011;27616;51.420;6.788;2022-07-23T03:19:11;9.15;;;6.70;;
41927;SDS011;27616;51.420;6.788;2022-07-23T03:21:37;11.70;;;6.10;;
41927;SDS011;27616;51.420;6.788;2022-07-23T03:24:07;10.23;;;6.45;;
41927;SDS011;27616;51.420;6.788;2022-07-23T03:26:34;9.40;;;6.53;;
41927;SDS011;27616;51.420;6.788;2022-07-23T03:29:00;8.15;;;5.80;;
41927;SDS011;27616;51.420;6.788;2022-07-23T03:31:29;9.02;;;6.03;;
41927;SDS011;27616;51.420;6.788;2022-07-23T03:33:59;10.55;;;5.75;;
41927;SDS011;27616;51.420;6.788;2022-07-23T03:36:25;9.45;;;5.90;;
41927;SDS011;27616;51.420;6.788;2022-07-23T03:41:19;11.55;;;6.50;;
41927;SDS011;27616;51.420;6.788;2022-07-23T03:43:46;9.55;;;6.28;;
41927;SDS011;27616;51.420;6.788;2022-07-23T03:46:12;10.70;;;6.20;;
41927;SDS011;27616;51.420;6.788;2022-07-23T03:48:37;9.15;;;6.22;;
41927;SDS011;27616;51.420;6.788;2022-07-23T03:51:03;7.57;;;6.00;;
41927;SDS011;27616;51.420;6.788;2022-07-23T03:53:29;9.65;;;6.00;;
41927;SDS011;27616;51.420;6.788;2022-07-23T03:55:55;12.00;;;6.43;;
41927;SDS011;27616;51.420;6.788;2022-07-23T03:58:22;11.30;;;6.18;;
41927;SDS011;27616;51.420;6.788;2022-07-23T04:00:47;13.90;;;6.78;;
41927;SDS011;27616;51.420;6.788;2022-07-23T04:03:14;12.07;;;6.97;;
41927;SDS011;27616;51.420;6.788;2022-07-23T04:05:41;10.10;;;6.43;;
41927;SDS011;27616;51.420;6.788;2022-07-23T04:08:11;10.75;;;6.65;;
41927;SDS011;27616;51.420;6.788;2022-07-23T04:10:39;10.40;;;6.38;;
41927;SDS011;27616;51.420;6.788;2022-07-23T04:13:07;10.63;;;6.28;;
41927;SDS011;27616;51.420;6.788;2022-07-23T04:15:33;9.05;;;6.40;;
41927;SDS011;27616;51.420;6.788;2022-07-23T04:17:58;9.70;;;6.05;;
41927;SDS011;27616;51.420;6.788;2022-07-23T04:20:34;11.00;;;6.88;;
41927;SDS011;27616;51.420;6.788;2022-07-23T04:23:01;14.48;;;6.60;;
41927;SDS011;27616;51.420;6.788;2022-07-23T04:25:28;9.77;;;6.55;;
41927;SDS011;27616;51.420;6.788;2022-07-23T04:27:53;10.70;;;6.38;;
41927;SDS011;27616;51.420;6.788;2022-07-23T04:30:19;11.30;;;6.82;;
41927;SDS011;27616;51.420;6.788;2022-07-23T04:32:45;9.30;;;6.60;;
41927;SDS011;27616;51.420;6.788;2022-07-23T04:35:17;11.45;;;6.88;;
41927;SDS011;27616;51.420;6.788;2022-07-23T04:37:44;9.95;;;6.53;;
41927;SDS011;27616;51.420;6.788;2022-07-23T04:40:10;10.45;;;6.57;;
41927;SDS011;27616;51.420;6.788;2022-07-23T04:42:37;9.52;;;6.30;;
41927;SDS011;27616;51.420;6.788;2022-07-23T04:45:03;9.27;;;7.03;;
41927;SDS011;27616;51.420;6.788;2022-07-23T04:47:30;9.48;;;6.18;;
41927;SDS011;27616;51.420;6.788;2022-07-23T04:49:57;11.05;;;7.97;;
41927;SDS011;27616;51.420;6.788;2022-07-23T04:52:23;12.82;;;7.22;;
41927;SDS011;27616;51.420;6.788;2022-07-23T04:54:50;11.43;;;6.60;;
41927;SDS011;27616;51.420;6.788;2022-07-23T04:57:15;10.57;;;7.07;;
41927;SDS011;27616;51.420;6.788;2022-07-23T04:59:41;10.30;;;6.80;;
41927;SDS011;27616;51.420;6.788;2022-07-23T05:02:08;12.45;;;7.53;;
41927;SDS011;27616;51.420;6.788;2022-07-23T05:04:34;10.63;;;6.60;;
41927;SDS011;27616;51.420;6.788;2022-07-23T05:07:01;11.32;;;7.13;;
41927;SDS011;27616;51.420;6.788;2022-07-23T05:09:28;10.65;;;7.10;;
41927;SDS011;27616;51.420;6.788;2022-07-23T05:11:54;9.82;;;6.53;;
41927;SDS011;27616;51.420;6.788;2022-07-23T05:14:21;10.98;;;7.75;;
41927;SDS011;27616;51.420;6.788;2022-07-23T05:16:50;10.90;;;6.95;;
41927;SDS011;27616;51.420;6.788;2022-07-23T05:19:21;10.65;;;6.90;;
41927;SDS011;27616;51.420;6.788;2022-07-23T05:21:46;16.27;;;7.70;;
41927;SDS011;27616;51.420;6.788;2022-07-23T05:24:13;11.75;;;6.60;;
41927;SDS011;27616;51.420;6.788;2022-07-23T05:26:39;12.32;;;7.85;;
41927;SDS011;27616;51.420;6.788;2022-07-23T05:29:05;10.85;;;7.50;;
41927;SDS011;27616;51.420;6.788;2022-07-23T05:31:30;11.30;;;7.25;;
41927;SDS011;27616;51.420;6.788;2022-07-23T05:33:56;11.20;;;6.82;;
41927;SDS011;27616;51.420;6.788;2022-07-23T05:36:23;11.13;;;7.97;;
41927;SDS011;27616;51.420;6.788;2022-07-23T05:38:52;14.05;;;7.97;;
41927;SDS011;27616;51.420;6.788;2022-07-23T05:41:18;11.20;;;7.35;;
41927;SDS011;27616;51.420;6.788;2022-07-23T05:43:44;10.73;;;7.20;;
41927;SDS011;27616;51.420;6.788;2022-07-23T05:46:10;11.98;;;7.82;;
41927;SDS011;27616;51.420;6.788;2022-07-23T05:48:39;10.23;;;7.50;;
41927;SDS011;27616;51.420;6.788;2022-07-23T05:51:10;13.25;;;9.32;;
41927;SDS011;27616;51.420;6.788;2022-07-23T05:53:36;15.43;;;9.88;;
41927;SDS011;27616;51.420;6.788;2022-07-23T05:56:28;13.13;;;8.20;;
41927;SDS011;27616;51.420;6.788;2022-07-23T05:58:54;13.52;;;8.45;;
41927;SDS011;27616;51.420;6.788;2022-07-23T06:01:23;11.82;;;7.93;;
41927;SDS011;27616;51.420;6.788;2022-07-23T06:03:58;11.73;;;8.07;;
41927;SDS011;27616;51.420;6.788;2022-07-23T06:06:31;12.10;;;8.70;;
41927;SDS011;27616;51.420;6.788;2022-07-23T06:08:57;13.75;;;9.23;;
41927;SDS011;27616;51.420;6.788;2022-07-23T06:11:23;12.60;;;8.82;;
41927;SDS011;27616;51.420;6.788;2022-07-23T06:13:48;17.10;;;10.25;;
41927;SDS011;27616;51.420;6.788;2022-07-23T06:16:15;13.52;;;9.70;;
41927;SDS011;27616;51.420;6.788;2022-07-23T06:18:40;13.70;;;8.93;;
41927;SDS011;27616;51.420;6.788;2022-07-23T06:21:07;16.20;;;10.00;;
41927;SDS011;27616;51.420;6.788;2022-07-23T06:23:32;17.23;;;10.82;;
41927;SDS011;27616;51.420;6.788;2022-07-23T06:25:58;13.07;;;9.50;;
41927;SDS011;27616;51.420;6.788;2022-07-23T06:28:24;13.13;;;8.73;;
41927;SDS011;27616;51.420;6.788;2022-07-23T06:30:50;20.80;;;12.07;;
41927;SDS011;27616;51.420;6.788;2022-07-23T06:33:16;15.65;;;10.90;;
41927;SDS011;27616;51.420;6.788;2022-07-23T06:35:43;16.63;;;10.65;;
41927;SDS011;27616;51.420;6.788;2022-07-23T06:38:09;16.88;;;11.88;;
41927;SDS011;27616;51.420;6.788;2022-07-23T06:40:35;21.83;;;12.95;;
41927;SDS011;27616;51.420;6.788;2022-07-23T06:43:01;18.38;;;12.20;;
41927;SDS011;27616;51.420;6.788;2022-07-23T06:45:27;20.27;;;12.43;;
41927;SDS011;27616;51.420;6.788;2022-07-23T06:47:53;18.17;;;12.90;;
41927;SDS011;27616;51.420;6.788;2022-07-23T06:50:18;20.40;;;13.40;;
41927;SDS011;27616;51.420;6.788;2022-07-23T06:52:44;22.63;;;15.32;;
41927;SDS011;27616;51.420;6.788;2022-07-23T06:55:10;18.55;;;13.60;;
41927;SDS011;27616;51.420;6.788;2022-07-23T06:57:37;25.35;;;13.48;;
41927;SDS011;27616;51.420;6.788;2022-07-23T07:00:05;16.80;;;12.98;;
41927;SDS011;27616;51.420;6.788;2022-07-23T07:02:31;20.15;;;13.57;;
41927;SDS011;27616;51.420;6.788;2022-07-23T07:04:57;20.00;;;12.38;;
41927;SDS011;27616;51.420;6.788;2022-07-23T07:07:22;18.63;;;11.57;;
41927;SDS011;27616;51.420;6.788;2022-07-23T07:09:48;19.63;;;12.63;;
41927;SDS011;27616;51.420;6.788;2022-07-23T07:12:14;16.00;;;10.52;;
41927;SDS011;27616;51.420;6.788;2022-07-23T07:14:40;19.70;;;13.80;;
41927;SDS011;27616;51.420;6.788;2022-07-23T07:17:06;19.45;;;11.05;;
41927;SDS011;27616;51.420;6.788;2022-07-23T07:19:36;15.77;;;10.90;;
41927;SDS011;27616;51.420;6.788;2022-07-23T07:22:04;16.33;;;12.27;;
41927;SDS011;27616;51.420;6.788;2022-07-23T07:24:35;16.40;;;11.57;;
41927;SDS011;27616;51.420;6.788;2022-07-23T07:27:03;19.02;;;11.20;;
41927;SDS011;27616;51.420;6.788;2022-07-23T07:29:29;23.08;;;13.68;;
41927;SDS011;27616;51.420;6.788;2022-07-23T07:31:55;21.88;;;12.48;;
41927;SDS011;27616;51.420;6.788;2022-07-23T07:34:21;19.65;;;11.93;;
41927;SDS011;27616;51.420;6.788;2022-07-23T07:36:47;18.60;;;10.50;;
41927;SDS011;27616;51.420;6.788;2022-07-23T07:39:13;18.60;;;11.40;;
41927;SDS011;27616;51.420;6.788;2022-07-23T07:41:39;23.55;;;14.82;;
41927;SDS011;27616;51.420;6.788;2022-07-23T07:44:05;33.08;;;20.98;;
41927;SDS011;27616;51.420;6.788;2022-07-23T07:46:33;31.20;;;22.08;;
41927;SDS011;27616;51.420;6.788;2022-07-23T07:48:59;40.40;;;25.00;;
41927;SDS011;27616;51.420;6.788;2022-07-23T07:51:25;35.90;;;23.17;;
41927;SDS011;27616;51.420;6.788;2022-07-23T07:53:52;31.85;;;21.92;;
41927;SDS011;27616;51.420;6.788;2022-07-23T07:56:17;28.45;;;17.50;;
41927;SDS011;27616;51.420;6.788;2022-07-23T07:58:43;31.88;;;19.75;;
41927;SDS011;27616;51.420;6.788;2022-07-23T08:01:09;33.22;;;21.25;;
41927;SDS011;27616;51.420;6.788;2022-07-23T08:03:35;31.55;;;21.08;;
41927;SDS011;27616;51.420;6.788;2022-07-23T08:06:00;28.73;;;19.92;;
41927;SDS011;27616;51.420;6.788;2022-07-23T08:08:26;25.75;;;17.38;;
41927;SDS011;27616;51.420;6.788;2022-07-23T08:10:52;25.83;;;16.00;;
41927;SDS011;27616;51.420;6.788;2022-07-23T08:13:17;18.40;;;11.63;;
41927;SDS011;27616;51.420;6.788;2022-07-23T08:15:43;18.40;;;11.88;;
41927;SDS011;27616;51.420;6.788;2022-07-23T08:18:09;14.52;;;9.82;;
41927;SDS011;27616;51.420;6.788;2022-07-23T08:20:35;13.00;;;7.80;;
41927;SDS011;27616;51.420;6.788;2022-07-23T08:23:05;18.42;;;10.73;;
41927;SDS011;27616;51.420;6.788;2022-07-23T08:25:32;14.55;;;10.35;;
41927;SDS011;27616;51.420;6.788;2022-07-23T08:28:00;15.50;;;8.38;;
41927;SDS011;27616;51.420;6.788;2022-07-23T08:30:27;13.25;;;7.32;;
41927;SDS011;27616;51.420;6.788;2022-07-23T08:32:55;12.98;;;7.65;;
41927;SDS011;27616;51.420;6.788;2022-07-23T08:35:27;13.68;;;6.47;;
41927;SDS011;27616;51.420;6.788;2022-07-23T08:37:58;11.85;;;5.65;;
41927;SDS011;27616;51.420;6.788;2022-07-23T08:40:26;9.52;;;4.60;;
41927;SDS011;27616;51.420;6.788;2022-07-23T08:42:53;9.52;;;4.97;;
41927;SDS011;27616;51.420;6.788;2022-07-23T08:45:20;8.80;;;5.40;;
41927;SDS011;27616;51.420;6.788;2022-07-23T08:47:50;10.35;;;5.15;;
41927;SDS011;27616;51.420;6.788;2022-07-23T08:50:18;8.73;;;4.47;;
41927;SDS011;27616;51.420;6.788;2022-07-23T08:52:44;16.17;;;8.45;;
41927;SDS011;27616;51.420;6.788;2022-07-23T08:55:10;11.90;;;6.70;;
41927;SDS011;27616;51.420;6.788;2022-07-23T08:57:36;11.10;;;5.25;;
41927;SDS011;27616;51.420;6.788;2022-07-23T09:00:03;9.45;;;4.13;;
41927;SDS011;27616;51.420;6.788;2022-07-23T09:02:30;10.63;;;6.78;;
41927;SDS011;27616;51.420;6.788;2022-07-23T09:05:03;10.02;;;5.43;;
41927;SDS011;27616;51.420;6.788;2022-07-23T09:07:29;9.15;;;4.85;;
41927;SDS011;27616;51.420;6.788;2022-07-23T09:10:13;6.15;;;3.88;;
41927;SDS011;27616;51.420;6.788;2022-07-23T09:12:39;11.60;;;5.72;;
41927;SDS011;27616;51.420;6.788;2022-07-23T09:15:08;12.70;;;6.45;;
41927;SDS011;27616;51.420;6.788;2022-07-23T09:20:23;11.98;;;5.65;;
41927;SDS011;27616;51.420;6.788;2022-07-23T09:22:48;9.45;;;5.38;;
41927;SDS011;27616;51.420;6.788;2022-07-23T09:25:16;11.75;;;5.60;;
41927;SDS011;27616;51.420;6.788;2022-07-23T09:27:50;8.77;;;4.50;;
41927;SDS011;27616;51.420;6.788;2022-07-23T09:30:21;6.00;;;4.07;;
41927;SDS011;27616;51.420;6.788;2022-07-23T09:33:08;9.00;;;4.65;;
41927;SDS011;27616;51.420;6.788;2022-07-23T09:38:29;10.00;;;4.63;;
41927;SDS011;27616;51.420;6.788;2022-07-23T09:41:07;10.70;;;4.85;;
41927;SDS011;27616;51.420;6.788;2022-07-23T09:43:33;10.88;;;4.18;;
41927;SDS011;27616;51.420;6.788;2022-07-23T09:48:51;7.82;;;3.70;;
41927;SDS011;27616;51.420;6.788;2022-07-23T09:51:18;10.05;;;4.00;;
41927;SDS011;27616;51.420;6.788;2022-07-23T09:54:02;10.45;;;3.53;;
41927;SDS011;27616;51.420;6.788;2022-07-23T09:56:49;6.68;;;3.17;;
41927;SDS011;27616;51.420;6.788;2022-07-23T10:00:18;6.85;;;3.10;;
41927;SDS011;27616;51.420;6.788;2022-07-23T10:03:28;7.32;;;3.58;;
41927;SDS011;27616;51.420;6.788;2022-07-23T10:10:16;7.00;;;3.67;;
41927;SDS011;27616;51.420;6.788;2022-07-23T10:13:04;8.55;;;4.60;;
41927;SDS011;27616;51.420;6.788;2022-07-23T10:16:00;6.90;;;3.50;;
41927;SDS011;27616;51.420;6.788;2022-07-23T10:18:36;9.57;;;3.60;;
41927;SDS011;27616;51.420;6.788;2022-07-23T10:24:35;6.63;;;3.20;;
41927;SDS011;27616;51.420;6.788;2022-07-23T10:37:12;5.05;;;2.75;;
41927;SDS011;27616;51.420;6.788;2022-07-23T10:42:51;5.60;;;3.05;;
41927;SDS011;27616;51.420;6.788;2022-07-23T10:46:25;5.30;;;2.30;;
41927;SDS011;27616;51.420;6.788;2022-07-23T10:54:39;8.55;;;3.40;;
41927;SDS011;27616;51.420;6.788;2022-07-23T10:57:11;5.47;;;2.83;;
41927;SDS011;27616;51.420;6.788;2022-07-23T11:02:30;5.97;;;2.88;;
41927;SDS011;27616;51.420;6.788;2022-07-23T11:07:26;6.43;;;2.17;;
41927;SDS011;27616;51.420;6.788;2022-07-23T11:09:54;5.32;;;2.20;;
41927;SDS011;27616;51.420;6.788;2022-07-23T11:20:16;4.57;;;2.63;;
41927;SDS011;27616;51.420;6.788;2022-07-23T11:25:13;5.97;;;2.38;;
41927;SDS011;27616;51.420;6.788;2022-07-23T11:27:53;6.60;;;2.47;;
41927;SDS011;27616;51.420;6.788;2022-07-23T11:32:52;6.10;;;2.40;;
41927;SDS011;27616;51.420;6.788;2022-07-23T11:35:39;5.05;;;2.22;;
41927;SDS011;27616;51.420;6.788;2022-07-23T11:38:07;5.03;;;2.10;;
41927;SDS011;27616;51.420;6.788;2022-07-23T11:40:43;6.43;;;2.65;;
41927;SDS011;27616;51.420;6.788;2022-07-23T11:43:10;4.80;;;2.05;;
41927;SDS011;27616;51.420;6.788;2022-07-23T11:45:39;7.90;;;2.60;;
41927;SDS011;27616;51.420;6.788;2022-07-23T11:48:15;4.35;;;2.10;;
41927;SDS011;27616;51.420;6.788;2022-07-23T11:50:54;7.78;;;3.10;;
41927;SDS011;27616;51.420;6.788;2022-07-23T11:53:25;6.70;;;3.00;;
41927;SDS011;27616;51.420;6.788;2022-07-23T11:55:53;4.25;;;2.30;;
41927;SDS011;27616;51.420;6.788;2022-07-23T11:58:20;5.22;;;2.83;;
41927;SDS011;27616;51.420;6.788;2022-07-23T12:00:46;5.72;;;3.95;;
41927;SDS011;27616;51.420;6.788;2022-07-23T12:03:12;5.30;;;2.95;;
41927;SDS011;27616;51.420;6.788;2022-07-23T12:05:39;7.50;;;3.38;;
41927;SDS011;27616;51.420;6.788;2022-07-23T12:08:06;8.32;;;2.60;;
41927;SDS011;27616;51.420;6.788;2022-07-23T12:10:43;6.73;;;3.13;;
41927;SDS011;27616;51.420;6.788;2022-07-23T12:13:25;4.88;;;3.00;;
41927;SDS011;27616;51.420;6.788;2022-07-23T12:15:51;7.00;;;3.10;;
41927;SDS011;27616;51.420;6.788;2022-07-23T12:18:19;5.32;;;2.88;;
41927;SDS011;27616;51.420;6.788;2022-07-23T12:21:02;4.32;;;2.63;;
41927;SDS011;27616;51.420;6.788;2022-07-23T12:23:30;5.03;;;2.10;;
41927;SDS011;27616;51.420;6.788;2022-07-23T12:26:00;4.78;;;2.58;;
41927;SDS011;27616;51.420;6.788;2022-07-23T12:28:30;4.13;;;2.15;;
41927;SDS011;27616;51.420;6.788;2022-07-23T12:33:24;4.85;;;2.50;;
41927;SDS011;27616;51.420;6.788;2022-07-23T12:35:51;3.40;;;2.20;;
41927;SDS011;27616;51.420;6.788;2022-07-23T12:38:22;3.75;;;1.83;;
41927;SDS011;27616;51.420;6.788;2022-07-23T12:40:50;3.65;;;1.92;;
41927;SDS011;27616;51.420;6.788;2022-07-23T12:51:18;5.22;;;2.40;;
41927;SDS011;27616;51.420;6.788;2022-07-23T12:56:26;4.88;;;2.60;;
41927;SDS011;27616;51.420;6.788;2022-07-23T12:59:15;6.65;;;4.03;;
41927;SDS011;27616;51.420;6.788;2022-07-23T13:01:42;5.13;;;2.53;;
41927;SDS011;27616;51.420;6.788;2022-07-23T13:04:14;3.63;;;2.42;;
41927;SDS011;27616;51.420;6.788;2022-07-23T13:06:47;3.38;;;2.00;;
41927;SDS011;27616;51.420;6.788;2022-07-23T13:09:15;5.28;;;3.00;;
41927;SDS011;27616;51.420;6.788;2022-07-23T13:11:47;4.45;;;2.55;;
41927;SDS011;27616;51.420;6.788;2022-07-23T13:14:15;3.50;;;2.03;;
41927;SDS011;27616;51.420;6.788;2022-07-23T13:16:42;6.95;;;2.03;;
41927;SDS011;27616;51.420;6.788;2022-07-23T13:19:09;4.57;;;2.05;;
41927;SDS011;27616;51.420;6.788;2022-07-23T13:21:35;5.53;;;1.90;;
41927;SDS011;27616;51.420;6.788;2022-07-23T13:24:00;3.67;;;2.22;;
41927;SDS011;27616;51.420;6.788;2022-07-23T13:26:26;4.35;;;2.13;;
41927;SDS011;27616;51.420;6.788;2022-07-23T13:28:52;4.07;;;2.35;;
41927;SDS011;27616;51.420;6.788;2022-07-23T13:31:18;5.68;;;2.00;;
41927;SDS011;27616;51.420;6.788;2022-07-23T13:36:13;4.00;;;2.20;;
41927;SDS011;27616;51.420;6.788;2022-07-23T13:38:39;5.22;;;2.13;;
41927;SDS011;27616;51.420;6.788;2022-07-23T13:41:12;4.00;;;2.13;;
41927;SDS011;27616;51.420;6.788;2022-07-23T13:43:44;3.83;;;2.00;;
41927;SDS011;27616;51.420;6.788;2022-07-23T13:46:10;4.43;;;2.20;;
41927;SDS011;27616;51.420;6.788;2022-07-23T13:48:36;3.38;;;1.92;;
41927;SDS011;27616;51.420;6.788;2022-07-23T13:51:02;4.05;;;2.00;;
41927;SDS011;27616;51.420;6.788;2022-07-23T13:53:28;3.83;;;2.10;;
41927;SDS011;27616;51.420;6.788;2022-07-23T13:55:54;3.95;;;2.10;;
41927;SDS011;27616;51.420;6.788;2022-07-23T13:58:20;4.90;;;2.47;;
41927;SDS011;27616;51.420;6.788;2022-07-23T14:00:47;3.25;;;2.15;;
41927;SDS011;27616;51.420;6.788;2022-07-23T14:03:15;4.43;;;2.25;;
41927;SDS011;27616;51.420;6.788;2022-07-23T14:05:42;5.53;;;2.38;;
41927;SDS011;27616;51.420;6.788;2022-07-23T14:08:09;3.72;;;2.35;;
41927;SDS011;27616;51.420;6.788;2022-07-23T14:10:56;6.00;;;2.38;;
41927;SDS011;27616;51.420;6.788;2022-07-23T14:13:21;5.18;;;2.50;;
41927;SDS011;27616;51.420;6.788;2022-07-23T14:15:47;4.32;;;1.98;;
41927;SDS011;27616;51.420;6.788;2022-07-23T14:18:14;4.55;;;2.10;;
41927;SDS011;27616;51.420;6.788;2022-07-23T14:20:42;4.63;;;2.40;;
41927;SDS011;27616;51.420;6.788;2022-07-23T14:23:07;3.55;;;2.30;;
41927;SDS011;27616;51.420;6.788;2022-07-23T14:25:34;3.85;;;2.20;;
41927;SDS011;27616;51.420;6.788;2022-07-23T14:28:00;2.97;;;2.00;;
41927;SDS011;27616;51.420;6.788;2022-07-23T14:30:27;4.25;;;2.00;;
41927;SDS011;27616;51.420;6.788;2022-07-23T14:32:53;4.47;;;2.10;;
41927;SDS011;27616;51.420;6.788;2022-07-23T14:35:19;3.85;;;2.08;;
41927;SDS011;27616;51.420;6.788;2022-07-23T14:37:45;6.10;;;2.53;;
41927;SDS011;27616;51.420;6.788;2022-07-23T14:40:11;7.07;;;2.90;;
41927;SDS011;27616;51.420;6.788;2022-07-23T14:42:37;7.05;;;2.95;;
41927;SDS011;27616;51.420;6.788;2022-07-23T14:45:03;5.78;;;2.53;;
41927;SDS011;27616;51.420;6.788;2022-07-23T14:47:31;3.35;;;2.40;;
41927;SDS011;27616;51.420;6.788;2022-07-23T14:49:57;4.05;;;2.58;;
41927;SDS011;27616;51.420;6.788;2022-07-23T14:52:22;4.32;;;2.88;;
41927;SDS011;27616;51.420;6.788;2022-07-23T14:54:48;5.50;;;2.90;;
41927;SDS011;27616;51.420;6.788;2022-07-23T14:57:14;4.22;;;2.63;;
41927;SDS011;27616;51.420;6.788;2022-07-23T14:59:40;6.45;;;2.78;;
41927;SDS011;27616;51.420;6.788;2022-07-23T15:02:08;4.93;;;2.20;;
41927;SDS011;27616;51.420;6.788;2022-07-23T15:04:34;3.83;;;2.33;;
41927;SDS011;27616;51.420;6.788;2022-07-23T15:06:59;5.30;;;3.10;;
41927;SDS011;27616;51.420;6.788;2022-07-23T15:09:25;5.35;;;2.38;;
41927;SDS011;27616;51.420;6.788;2022-07-23T15:11:51;5.53;;;2.67;;
41927;SDS011;27616;51.420;6.788;2022-07-23T15:14:17;9.85;;;2.78;;
41927;SDS011;27616;51.420;6.788;2022-07-23T15:16:43;3.90;;;2.50;;
41927;SDS011;27616;51.420;6.788;2022-07-23T15:19:09;4.25;;;2.70;;
41927;SDS011;27616;51.420;6.788;2022-07-23T15:21:35;4.75;;;2.60;;
41927;SDS011;27616;51.420;6.788;2022-07-23T15:24:01;3.95;;;2.45;;
41927;SDS011;27616;51.420;6.788;2022-07-23T15:26:27;4.60;;;2.50;;
41927;SDS011;27616;51.420;6.788;2022-07-23T15:28:54;3.27;;;2.00;;
41927;SDS011;27616;51.420;6.788;2022-07-23T15:31:21;4.40;;;2.35;;
41927;SDS011;27616;51.420;6.788;2022-07-23T15:33:48;3.80;;;2.35;;
41927;SDS011;27616;51.420;6.788;2022-07-23T15:36:14;4.00;;;2.65;;
41927;SDS011;27616;51.420;6.788;2022-07-23T15:38:41;6.60;;;2.78;;
41927;SDS011;27616;51.420;6.788;2022-07-23T15:41:07;5.25;;;2.80;;
41927;SDS011;27616;51.420;6.788;2022-07-23T15:43:33;4.75;;;2.72;;
41927;SDS011;27616;51.420;6.788;2022-07-23T15:45:59;5.00;;;2.78;;
41927;SDS011;27616;51.420;6.788;2022-07-23T15:48:25;5.47;;;2.90;;
41927;SDS011;27616;51.420;6.788;2022-07-23T15:50:51;5.85;;;2.88;;
41927;SDS011;27616;51.420;6.788;2022-07-23T15:53:17;3.97;;;2.35;;
41927;SDS011;27616;51.420;6.788;2022-07-23T15:55:44;4.03;;;2.40;;
41927;SDS011;27616;51.420;6.788;2022-07-23T15:58:10;4.65;;;2.80;;